Terminal Aerodrome Forecast
Issued by NWS

Home | Current Version | Previous Version | Text Only | Print | Product List | Glossary On
Versions: 1 2 3 4 5 6 7 8 9 10 11 12 13 14 15 16 17 18 19 20 21 22 23
973
FTUS44 KOHX 301242 AAA
TAFCKV
TAF AMD
KCKV 301242Z 3013/0112 17010KT P6SM BKN035 BKN150 WS020/18040KT
     FM301500 17015G30KT P6SM VCTS OVC040CB
     FM301900 18017G32KT 6SM -SHRA VCTS OVC035CB
     FM302100 19017G30KT 3SM -TSRA BKN030CB OVC050
     FM010400 20010G20KT P6SM OVC050=

USA.gov is the U.S. government's official web portal to all federal, state and local government web resources and services.